Main page
METAR-TAF:

METAR-TAF

Airports :

Beirut Air Base

Beirut, Lebanon

latitude: 33-49N, longitude: 035-29E, elevation: 29 m

Current weather observation

The report was made 1 hour and 1 minutes ago, at 16:00 UTC
Wind 8 kt from the North/Northeast
Temperature 25°C
Humidity 47%
Pressure 1020 hPa
Visibility 10 km or more
no clouds below 1500 m and no cumulonimbus

METAR: OLBA 211600Z 02008KT CAVOK 25/13 Q1020 NOSIG

Time: 20:01 (17:01 UTC)

Forecast

The report was made 7 hours and 1 minutes ago, at 10:00 UTC
Forecast valid from 21 at 12 UTC to 22 at 18 UTC
Wind 3 kt from the Southeast
Visibility: 8000 m
no clouds below 1500 m and no cumulonimbus
Becoming
from 22 at 06 UTC to 22 at 08 UTC
Wind 8 kt from the North/Northwest
Visibility 10 km or more
no clouds below 1500 m and no cumulonimbus

TAF: OLBA 211000Z 2112/2218 33008KT //// CAVOK 2118/2120 14003KT 8000 NSC BECMG 2206/2208 33008KT CAVOK

Weather observations and forecasts of more than 4000 airports (METAR and TAF reports).

The available stations are represented by yellow and red dots on the map.

Hover mouse over dot to see the name of the station.

Then click to see weather observations and forecasts.

To change the map : click on the green buttons with a black cross to zoom in, on the green button with a dash to zoom out, or on the green arrows for adjacent maps.


METAR-TAF: